Time;durP1;ratioP1;P1;durP2;ratioP2;P2;SDS_P1;SDS_P2;PMS_P1;PMS_P2;Temp;Humidity;BMP_temperature;BMP_pressure;BME280_temperature;BME280_humidity;BME280_pressure;Samples;Min_cycle;Max_cycle;Signal;HPM_P1;HPM_P2
2023/02/25 00:01:20;;;;;;;74.70;38.30;;;5.20;99.90;;;;;;4162325;28;20059;-64
2023/02/25 00:03:21;;;;;;;68.80;35.53;;;5.20;99.90;;;;;;4162672;28;20457;-63
2023/02/25 00:05:23;;;;;;;69.73;37.03;;;5.20;99.90;;;;;;4162321;28;20528;-63
2023/02/25 00:07:27;;;;;;;74.10;39.87;;;5.20;99.90;;;;;;4162439;28;20029;-64
2023/02/25 00:09:29;;;;;;;78.13;42.37;;;5.20;99.90;;;;;;4162345;28;20045;-63
2023/02/25 00:11:30;;;;;;;83.13;43.97;;;5.10;99.90;;;;;;4162151;28;20087;-63
2023/02/25 00:13:33;;;;;;;75.57;41.63;;;5.10;99.90;;;;;;4162633;28;20018;-64
2023/02/25 00:15:34;;;;;;;81.60;41.63;;;5.00;99.90;;;;;;4159946;28;20115;-64
2023/02/25 00:17:38;;;;;;;85.97;43.83;;;5.00;99.90;;;;;;4146642;28;20482;-63
2023/02/25 00:19:39;;;;;;;70.77;39.37;;;5.00;99.90;;;;;;4145331;28;20050;-64
2023/02/25 00:21:40;;;;;;;81.53;39.87;;;5.00;99.90;;;;;;4149807;28;20527;-64
2023/02/25 00:23:43;;;;;;;75.97;40.23;;;5.00;99.90;;;;;;4159884;28;20084;-71
2023/02/25 00:25:45;;;;;;;77.53;43.07;;;5.00;99.90;;;;;;4146651;28;20080;-63
2023/02/25 00:27:46;;;;;;;78.83;41.60;;;5.00;99.90;;;;;;4145614;28;20084;-63
2023/02/25 00:29:52;;;;;;;64.67;32.80;;;5.00;99.90;;;;;;4146711;28;20038;-64
2023/02/25 00:31:53;;;;;;;56.03;30.63;;;5.10;99.90;;;;;;4145353;28;20034;-64
2023/02/25 00:33:54;;;;;;;60.67;31.13;;;5.20;99.90;;;;;;4146755;28;20038;-73
2023/02/25 00:35:55;;;;;;;57.10;29.70;;;5.40;99.90;;;;;;4145745;28;20045;-64
2023/02/25 00:37:57;;;;;;;49.00;26.70;;;5.50;99.90;;;;;;4146312;28;20037;-63
2023/02/25 00:39:59;;;;;;;66.60;33.60;;;5.60;99.90;;;;;;4145619;28;20014;-63
2023/02/25 00:42:00;;;;;;;55.60;30.77;;;5.60;99.90;;;;;;4145950;28;20042;-68
2023/02/25 00:44:03;;;;;;;67.63;36.33;;;5.60;99.90;;;;;;4145948;28;20030;-63
2023/02/25 00:46:05;;;;;;;81.53;39.90;;;5.60;99.90;;;;;;4155880;28;20034;-74
2023/02/25 00:48:07;;;;;;;70.07;37.27;;;5.50;99.90;;;;;;4162094;28;20049;-62
2023/02/25 00:50:09;;;;;;;79.10;38.97;;;5.50;99.90;;;;;;4161051;28;20054;-63
2023/02/25 00:52:10;;;;;;;81.87;36.63;;;5.50;99.90;;;;;;4162809;28;20029;-63
2023/02/25 00:54:12;;;;;;;78.30;39.43;;;5.50;99.90;;;;;;4161516;28;20033;-63
2023/02/25 00:56:15;;;;;;;74.93;40.37;;;5.50;99.90;;;;;;4146756;28;20045;-63
2023/02/25 00:58:16;;;;;;;41.13;23.37;;;5.40;99.90;;;;;;4160357;28;20075;-63
2023/02/25 01:00:17;;;;;;;39.93;24.13;;;5.40;99.90;;;;;;4162475;28;20033;-63
2023/02/25 01:02:18;;;;;;;82.20;38.37;;;5.50;99.90;;;;;;4161332;28;20072;-63
2023/02/25 01:04:20;;;;;;;64.57;30.97;;;5.60;99.90;;;;;;4151122;28;20041;-63
2023/02/25 01:06:22;;;;;;;59.27;32.43;;;5.60;99.90;;;;;;4144995;28;20038;-63
2023/02/25 01:08:23;;;;;;;48.47;26.33;;;5.70;99.90;;;;;;4146043;28;20026;-71
2023/02/25 01:10:25;;;;;;;54.20;28.90;;;5.70;99.90;;;;;;4143753;28;20049;-63
2023/02/25 01:12:26;;;;;;;61.70;30.00;;;5.80;99.90;;;;;;4145602;28;20034;-63
2023/02/25 01:14:27;;;;;;;65.60;33.73;;;5.70;99.90;;;;;;4145304;28;20025;-63
2023/02/25 01:16:30;;;;;;;68.83;35.27;;;5.80;99.90;;;;;;4150843;28;20095;-63
2023/02/25 01:18:31;;;;;;;70.53;36.40;;;5.70;99.90;;;;;;4161742;28;20040;-62
2023/02/25 01:20:37;;;;;;;65.53;33.40;;;5.60;99.90;;;;;;4150897;28;20034;-63
2023/02/25 01:22:40;;;;;;;66.50;35.27;;;5.60;99.90;;;;;;4155008;28;20045;-63
2023/02/25 01:24:41;;;;;;;64.47;36.60;;;5.60;99.90;;;;;;4160762;28;20065;-62
2023/02/25 01:26:44;;;;;;;70.20;36.87;;;5.50;99.90;;;;;;4161818;28;20474;-65
2023/02/25 01:28:45;;;;;;;65.83;34.13;;;5.50;99.90;;;;;;4160987;28;20026;-67
2023/02/25 01:30:46;;;;;;;71.13;36.83;;;5.40;99.90;;;;;;4161849;28;20037;-63
2023/02/25 01:32:48;;;;;;;63.27;36.07;;;5.50;99.90;;;;;;4159052;28;20057;-63
2023/02/25 01:34:49;;;;;;;68.37;37.07;;;5.50;99.90;;;;;;4162351;28;20083;-63
2023/02/25 01:36:51;;;;;;;71.13;37.43;;;5.40;99.90;;;;;;4160856;28;20460;-63
2023/02/25 01:38:52;;;;;;;63.77;35.43;;;5.50;99.90;;;;;;4162038;28;20037;-63
2023/02/25 01:40:58;;;;;;;63.00;35.73;;;5.50;99.90;;;;;;4160780;28;20018;-63
2023/02/25 01:42:59;;;;;;;68.33;35.90;;;5.50;99.90;;;;;;4161740;28;20087;-67
2023/02/25 01:45:18;;;;;;;65.27;36.60;;;5.50;99.90;;;;;;4160537;28;20707;-63
2023/02/25 01:47:20;;;;;;;66.47;36.63;;;5.40;99.90;;;;;;4161901;28;20041;-62
2023/02/25 01:49:37;;;;;;;67.73;36.00;;;5.40;99.90;;;;;;4160500;28;20033;-62
2023/02/25 01:51:40;;;;;;;60.00;33.33;;;5.40;99.90;;;;;;4160283;28;20038;-68
2023/02/25 01:53:46;;;;;;;56.47;31.87;;;5.40;99.90;;;;;;4160392;28;20805;-62
2023/02/25 01:55:48;;;;;;;50.93;27.50;;;5.40;99.90;;;;;;4157596;28;20030;-63
2023/02/25 01:57:49;;;;;;;47.87;27.13;;;5.50;99.90;;;;;;4144705;28;20099;-62
2023/02/25 01:59:54;;;;;;;55.20;31.27;;;5.50;99.90;;;;;;4144972;28;20038;-63
2023/02/25 02:01:55;;;;;;;62.13;31.07;;;5.60;99.90;;;;;;4144818;28;20041;-62
2023/02/25 02:03:57;;;;;;;55.17;30.73;;;5.60;99.90;;;;;;4144570;28;20042;-63
2023/02/25 02:06:14;;;;;;;51.20;28.57;;;5.60;99.90;;;;;;4145431;28;20048;-64
2023/02/25 02:08:15;;;;;;;64.63;30.87;;;5.60;99.90;;;;;;4144601;28;20038;-69
2023/02/25 02:10:18;;;;;;;59.23;31.83;;;5.60;99.90;;;;;;4144825;28;20081;-62
2023/02/25 02:12:19;;;;;;;54.13;30.70;;;5.60;99.90;;;;;;4144343;28;20042;-62
2023/02/25 02:14:29;;;;;;;61.90;31.60;;;5.60;99.90;;;;;;4145353;28;20544;-63
2023/02/25 02:16:42;;;;;;;55.13;28.15;;;5.60;99.90;;;;;;4152538;28;20037;-62
2023/02/25 02:18:50;;;;;;;55.97;29.47;;;5.50;99.90;;;;;;4161559;28;20030;-62
2023/02/25 02:21:28;;;;;;;54.93;29.77;;;5.50;99.90;;;;;;4160032;28;20484;-63
2023/02/25 02:23:29;;;;;;;59.87;29.23;;;5.50;99.90;;;;;;4159486;28;20119;-63
2023/02/25 02:25:30;;;;;;;51.60;28.40;;;5.50;99.90;;;;;;4160711;28;20034;-62
2023/02/25 02:27:43;;;;;;;48.83;27.43;;;5.50;99.90;;;;;;4158566;28;20486;-63
2023/02/25 02:29:59;;;;;;;55.80;30.07;;;5.50;99.90;;;;;;4144172;28;20026;-62
2023/02/25 02:32:28;;;;;;;48.50;28.07;;;5.50;99.90;;;;;;4144808;28;20100;-62
2023/02/25 02:35:13;;;;;;;53.87;29.03;;;5.50;99.90;;;;;;4134130;28;20482;-66
2023/02/25 02:37:28;;;;;;;59.63;27.77;;;5.50;99.90;;;;;;4128481;28;20050;-62
2023/02/25 02:40:09;;;;;;;50.97;28.67;;;5.50;99.90;;;;;;4145245;28;20080;-61
2023/02/25 02:42:29;;;;;;;50.83;27.15;;;5.50;99.90;;;;;;4131188;28;20799;-62
2023/02/25 02:44:35;;;;;;;;;;;5.40;99.90;;;;;;4145683;28;20044;-62
2023/02/25 02:46:44;;;;;;;50.63;24.93;;;5.40;99.90;;;;;;4144185;28;19909;-61
2023/02/25 02:48:55;;;;;;;48.93;26.70;;;5.40;99.90;;;;;;4156873;28;20087;-62
2023/02/25 02:51:00;;;;;;;51.10;27.03;;;5.40;99.90;;;;;;4159912;28;20655;-62
2023/02/25 02:53:22;;;;;;;49.67;26.37;;;5.40;99.90;;;;;;4161441;28;20033;-61
2023/02/25 02:55:33;;;;;;;41.27;24.17;;;5.40;99.90;;;;;;4151047;28;20494;-61
2023/02/25 02:57:37;;;;;;;43.75;23.92;;;5.40;99.90;;;;;;4147132;28;20470;-62
2023/02/25 02:59:53;;;;;;;45.70;24.67;;;5.40;99.90;;;;;;4160310;28;20029;-68
2023/02/25 03:02:04;;;;;;;49.43;25.30;;;5.40;99.90;;;;;;4147452;28;20042;-62
2023/02/25 03:04:10;;;;;;;42.70;22.83;;;5.40;99.90;;;;;;4143747;28;20462;-62
2023/02/25 03:06:17;;;;;;;43.90;23.37;;;5.40;99.90;;;;;;4145403;28;20025;-62
2023/02/25 03:08:27;;;;;;;40.13;22.03;;;5.40;99.90;;;;;;4143946;28;20080;-62
2023/02/25 03:10:28;;;;;;;44.78;23.13;;;5.40;99.90;;;;;;4147146;28;20762;-66
2023/02/25 03:12:30;;;;;;;47.30;24.40;;;5.40;99.90;;;;;;4146793;28;20034;-62
2023/02/25 03:14:31;;;;;;;48.87;25.83;;;5.40;99.90;;;;;;4147715;28;20096;-62
2023/02/25 03:17:03;;;;;;;41.23;24.03;;;5.40;99.90;;;;;;4145145;28;20352;-62
2023/02/25 03:19:17;;;;;;;45.90;24.17;;;5.40;99.90;;;;;;4147013;28;20042;-62
2023/02/25 03:21:22;;;;;;;46.33;26.63;;;5.50;99.90;;;;;;4146551;28;20033;-62
2023/02/25 03:23:29;;;;;;;47.83;26.03;;;5.40;99.90;;;;;;4147677;28;20037;-61
2023/02/25 03:26:09;;;;;;;43.57;26.47;;;5.40;99.90;;;;;;4146320;28;20026;-63
2023/02/25 03:28:20;;;;;;;49.15;27.83;;;5.40;99.90;;;;;;4129502;28;20446;-62
2023/02/25 03:30:43;;;;;;;45.97;25.53;;;5.30;99.90;;;;;;4161936;28;20072;-65
2023/02/25 03:32:54;;;;;;;48.37;26.10;;;5.40;99.90;;;;;;4147490;28;20058;-65
2023/02/25 03:34:58;;;;;;;52.23;28.30;;;5.40;99.90;;;;;;4158128;28;20046;-62
2023/02/25 03:37:04;;;;;;;48.83;30.27;;;5.30;99.90;;;;;;4147067;28;20022;-62
2023/02/25 03:39:10;;;;;;;52.20;31.50;;;5.30;99.90;;;;;;4146461;28;20072;-61
2023/02/25 03:41:13;;;;;;;50.47;27.27;;;5.20;99.90;;;;;;4146804;28;20045;-62
2023/02/25 03:43:20;;;;;;;54.53;29.10;;;5.20;99.90;;;;;;4146384;28;20095;-62
2023/02/25 03:45:23;;;;;;;53.37;28.30;;;5.10;99.90;;;;;;4147229;28;20084;-63
2023/02/25 03:47:28;;;;;;;49.00;26.70;;;5.10;99.90;;;;;;4146067;28;20096;-62
2023/02/25 03:49:39;;;;;;;46.73;26.77;;;5.10;99.90;;;;;;4147170;28;20034;-62
2023/02/25 03:51:41;;;;;;;47.73;28.20;;;5.00;99.90;;;;;;4145927;28;20037;-64
2023/02/25 03:53:43;;;;;;;53.03;27.30;;;4.90;99.90;;;;;;4147233;28;20248;-62
2023/02/25 03:55:44;;;;;;;45.83;24.90;;;4.90;99.90;;;;;;4145851;28;20042;-62
2023/02/25 03:57:49;;;;;;;48.00;26.10;;;4.80;99.90;;;;;;4147147;28;20076;-63
2023/02/25 03:59:55;;;;;;;51.80;27.03;;;4.90;99.90;;;;;;4145751;28;20092;-62
2023/02/25 04:01:58;;;;;;;52.13;26.07;;;4.90;99.90;;;;;;4147975;28;20049;-62
2023/02/25 04:04:00;;;;;;;46.73;26.00;;;4.90;99.90;;;;;;4144356;28;20080;-62
2023/02/25 04:06:01;;;;;;;49.43;26.83;;;4.80;99.90;;;;;;4147397;28;20029;-62
2023/02/25 04:08:02;;;;;;;50.00;27.33;;;4.80;99.90;;;;;;4145790;28;20025;-62
2023/02/25 04:10:05;;;;;;;49.33;27.67;;;4.80;99.90;;;;;;4146944;28;20104;-62
2023/02/25 04:12:07;;;;;;;52.97;27.20;;;4.80;99.90;;;;;;4144418;28;20088;-62
2023/02/25 04:14:08;;;;;;;50.50;27.63;;;4.80;99.90;;;;;;4146696;28;20033;-62
2023/02/25 04:16:09;;;;;;;58.43;30.37;;;4.80;99.90;;;;;;4145977;28;20521;-63
2023/02/25 04:18:10;;;;;;;51.20;30.30;;;4.80;99.90;;;;;;4146236;28;20080;-62
2023/02/25 04:20:15;;;;;;;49.33;27.57;;;4.90;99.90;;;;;;4146005;28;20437;-63
2023/02/25 04:22:17;;;;;;;53.63;29.83;;;4.90;99.90;;;;;;4144895;28;20096;-63
2023/02/25 04:24:18;;;;;;;56.50;28.13;;;4.90;99.90;;;;;;4146490;28;20104;-62
2023/02/25 04:26:19;;;;;;;48.50;27.27;;;4.90;99.90;;;;;;4145560;28;20046;-63
2023/02/25 04:28:20;;;;;;;46.03;24.90;;;4.90;99.90;;;;;;4146604;28;20041;-63
2023/02/25 04:30:21;;;;;;;49.43;28.33;;;5.00;99.90;;;;;;4145342;28;20085;-63
2023/02/25 04:32:22;;;;;;;56.60;29.53;;;5.00;99.90;;;;;;4146462;28;20050;-61
2023/02/25 04:34:23;;;;;;;49.30;27.67;;;5.00;99.90;;;;;;4145126;28;20030;-63
2023/02/25 04:36:25;;;;;;;47.03;27.17;;;5.00;99.90;;;;;;4146934;28;20042;-62
2023/02/25 04:38:26;;;;;;;61.83;32.73;;;4.90;99.90;;;;;;4145249;28;20109;-62
2023/02/25 04:40:27;;;;;;;54.50;31.33;;;4.90;99.90;;;;;;4146561;28;20034;-68
2023/02/25 04:42:29;;;;;;;60.07;31.63;;;4.70;99.90;;;;;;4145257;28;20096;-62
2023/02/25 04:44:30;;;;;;;44.00;26.23;;;4.70;99.90;;;;;;4155863;28;20084;-73
2023/02/25 04:46:33;;;;;;;51.23;26.60;;;4.70;99.90;;;;;;4159675;28;20037;-62
2023/02/25 04:48:34;;;;;;;55.07;31.07;;;4.60;99.90;;;;;;4161897;28;20033;-63
2023/02/25 04:50:36;;;;;;;57.50;28.00;;;4.60;99.90;;;;;;4160239;28;20067;-62
2023/02/25 04:52:37;;;;;;;47.33;26.63;;;4.70;99.90;;;;;;4148589;28;20484;-62
2023/02/25 04:54:38;;;;;;;49.23;28.17;;;4.70;99.90;;;;;;4159147;28;20104;-62
2023/02/25 04:56:40;;;;;;;46.33;26.57;;;4.70;99.90;;;;;;4145102;28;20021;-62
2023/02/25 04:58:41;;;;;;;50.73;26.20;;;4.70;99.90;;;;;;4156921;28;20703;-62
2023/02/25 05:00:47;;;;;;;46.00;25.13;;;4.80;99.90;;;;;;4161415;28;20443;-61
2023/02/25 05:02:48;;;;;;;46.30;22.17;;;4.80;99.90;;;;;;4162063;28;20025;-62
2023/02/25 05:04:49;;;;;;;38.67;22.97;;;4.80;99.90;;;;;;4161213;28;20034;-62
2023/02/25 05:06:50;;;;;;;36.67;21.97;;;4.80;99.90;;;;;;4162088;28;20049;-63
2023/02/25 05:08:52;;;;;;;40.53;22.37;;;4.80;99.90;;;;;;4152324;28;20037;-62
2023/02/25 05:10:54;;;;;;;57.17;25.43;;;4.90;99.90;;;;;;4145824;28;20490;-62
2023/02/25 05:12:55;;;;;;;49.10;25.57;;;4.90;99.90;;;;;;4144886;28;20474;-62
2023/02/25 05:14:56;;;;;;;48.57;24.53;;;5.00;99.90;;;;;;4145917;28;20310;-61
2023/02/25 05:16:57;;;;;;;68.90;26.33;;;5.00;99.90;;;;;;4144893;28;20580;-62
2023/02/25 05:18:58;;;;;;;48.93;24.00;;;5.10;99.90;;;;;;4145462;28;20042;-62
2023/02/25 05:21:00;;;;;;;50.90;23.03;;;5.10;99.90;;;;;;4145099;28;20478;-62
2023/02/25 05:23:01;;;;;;;44.83;22.73;;;5.10;99.90;;;;;;4160093;28;20099;-62
2023/02/25 05:25:02;;;;;;;39.50;22.47;;;5.20;99.90;;;;;;4161723;28;20401;-62
2023/02/25 05:27:07;;;;;;;38.83;21.57;;;5.20;99.90;;;;;;4160854;28;20083;-68
2023/02/25 05:29:09;;;;;;;40.83;21.80;;;5.20;99.90;;;;;;4161754;28;20025;-63
2023/02/25 05:31:11;;;;;;;55.73;30.77;;;5.20;99.90;;;;;;4160601;28;20095;-64
2023/02/25 05:33:13;;;;;;;42.73;23.57;;;5.20;99.90;;;;;;4161344;28;20096;-72
2023/02/25 05:35:14;;;;;;;43.80;24.30;;;5.20;99.90;;;;;;4160514;28;20099;-61
2023/02/25 05:37:15;;;;;;;42.73;23.63;;;5.20;99.90;;;;;;4161960;28;20088;-61
2023/02/25 05:39:16;;;;;;;43.53;24.10;;;5.20;99.90;;;;;;4160586;28;20045;-61
2023/02/25 05:41:17;;;;;;;43.10;22.57;;;5.20;99.90;;;;;;4161773;28;20474;-62
2023/02/25 05:43:19;;;;;;;48.87;23.87;;;5.20;99.90;;;;;;4160629;28;20570;-62
2023/02/25 05:45:20;;;;;;;40.23;23.10;;;5.20;99.90;;;;;;4161825;28;20079;-62
2023/02/25 05:47:21;;;;;;;43.30;23.80;;;5.20;99.90;;;;;;4160728;28;20018;-63
2023/02/25 05:49:22;;;;;;;43.93;23.67;;;5.20;99.90;;;;;;4151625;28;20049;-63
2023/02/25 05:51:23;;;;;;;45.57;23.57;;;5.20;99.90;;;;;;4153285;28;20080;-62
2023/02/25 05:53:25;;;;;;;41.17;24.57;;;5.30;99.90;;;;;;4161272;28;20033;-69
2023/02/25 05:55:26;;;;;;;43.83;24.07;;;5.30;99.90;;;;;;4159464;28;20029;-62
2023/02/25 05:57:27;;;;;;;41.17;22.80;;;5.30;99.90;;;;;;4160975;28;20025;-62
2023/02/25 05:59:28;;;;;;;43.47;22.57;;;5.40;99.90;;;;;;4161224;28;20163;-62
2023/02/25 06:01:30;;;;;;;46.63;22.63;;;5.40;99.90;;;;;;4160084;28;20037;-63
2023/02/25 06:03:31;;;;;;;38.53;22.37;;;5.40;99.90;;;;;;4161216;28;20079;-65
2023/02/25 06:05:32;;;;;;;43.23;22.27;;;5.50;99.90;;;;;;4160551;28;20387;-62
2023/02/25 06:07:33;;;;;;;39.23;21.53;;;5.50;99.90;;;;;;4161200;28;20569;-62
2023/02/25 06:09:36;;;;;;;43.43;22.80;;;5.50;99.90;;;;;;4157011;28;20560;-62
2023/02/25 06:11:37;;;;;;;33.23;21.33;;;5.60;99.90;;;;;;4148043;28;20033;-62
2023/02/25 06:13:39;;;;;;;35.43;21.67;;;5.60;99.90;;;;;;4149512;28;20088;-62
2023/02/25 06:15:41;;;;;;;38.27;21.40;;;5.60;99.90;;;;;;4156374;28;20053;-63
2023/02/25 06:17:42;;;;;;;39.57;20.93;;;5.60;99.90;;;;;;4160489;28;20432;-63
2023/02/25 06:19:44;;;;;;;39.30;22.07;;;5.70;99.90;;;;;;4161291;28;20037;-62
2023/02/25 06:21:45;;;;;;;35.27;20.73;;;5.70;99.90;;;;;;4160400;28;20616;-62
2023/02/25 06:23:49;;;;;;;43.90;21.40;;;5.70;99.90;;;;;;4160741;28;20091;-63
2023/02/25 06:25:50;;;;;;;37.60;21.27;;;5.70;99.90;;;;;;4160524;28;20099;-62
2023/02/25 06:27:51;;;;;;;42.77;21.63;;;5.70;99.90;;;;;;4160562;28;20508;-66
2023/02/25 06:29:52;;;;;;;36.87;21.37;;;5.60;99.90;;;;;;4160998;28;20034;-62
2023/02/25 06:31:53;;;;;;;35.83;21.90;;;5.60;99.90;;;;;;4159914;28;20088;-64
2023/02/25 06:33:54;;;;;;;38.47;20.83;;;5.60;99.90;;;;;;4160831;28;20079;-63
2023/02/25 06:35:56;;;;;;;37.23;20.63;;;5.60;99.90;;;;;;4160446;28;20045;-68
2023/02/25 06:37:59;;;;;;;39.07;20.47;;;5.60;99.90;;;;;;4159490;28;20041;-62
2023/02/25 06:40:00;;;;;;;41.20;21.83;;;5.60;99.90;;;;;;4159601;28;20045;-62
2023/02/25 06:42:01;;;;;;;34.50;19.73;;;5.70;99.90;;;;;;4159610;28;20432;-62
2023/02/25 06:44:03;;;;;;;43.60;20.70;;;5.70;99.90;;;;;;4160049;28;20042;-72
2023/02/25 06:46:09;;;;;;;37.10;20.20;;;5.70;99.90;;;;;;4153218;28;20042;-63
2023/02/25 06:48:10;;;;;;;38.23;20.83;;;5.80;99.90;;;;;;4147660;28;20050;-63
2023/02/25 06:50:13;;;;;;;42.60;19.93;;;5.80;99.90;;;;;;4151713;28;20034;-63
2023/02/25 06:52:14;;;;;;;35.70;20.33;;;5.90;99.90;;;;;;4146481;28;20046;-62
2023/02/25 06:54:16;;;;;;;36.83;20.37;;;5.90;99.90;;;;;;4147791;28;20442;-63
2023/02/25 06:56:19;;;;;;;38.77;19.50;;;5.90;99.90;;;;;;4148262;28;20073;-62
2023/02/25 06:58:20;;;;;;;34.67;19.17;;;6.00;99.90;;;;;;4147213;28;20042;-67
2023/02/25 07:00:21;;;;;;;34.20;18.17;;;6.00;99.90;;;;;;4147156;28;20437;-63
2023/02/25 07:02:22;;;;;;;35.77;18.90;;;5.90;99.90;;;;;;4146432;28;20383;-62
2023/02/25 07:04:23;;;;;;;35.73;19.30;;;6.00;99.90;;;;;;4148437;28;20054;-68
2023/02/25 07:06:25;;;;;;;34.63;20.07;;;6.00;99.90;;;;;;4145719;28;20042;-69
2023/02/25 07:08:26;;;;;;;35.87;19.83;;;6.10;99.90;;;;;;4146611;28;20072;-62
2023/02/25 07:10:27;;;;;;;32.97;19.27;;;6.10;99.90;;;;;;4148727;28;20073;-61
2023/02/25 07:12:30;;;;;;;35.47;19.63;;;6.10;99.90;;;;;;4162369;28;20042;-61
2023/02/25 07:14:31;;;;;;;36.70;19.97;;;6.10;99.90;;;;;;4162587;28;20037;-62
2023/02/25 07:16:33;;;;;;;38.27;20.27;;;6.10;99.90;;;;;;4163080;28;20038;-62
2023/02/25 07:18:34;;;;;;;40.83;20.40;;;6.20;99.90;;;;;;4162277;28;20045;-61
2023/02/25 07:20:38;;;;;;;30.90;16.80;;;6.20;99.90;;;;;;4163655;28;20064;-65
2023/02/25 07:22:40;;;;;;;41.37;22.10;;;6.20;99.90;;;;;;4162414;28;20049;-71
2023/02/25 07:24:42;;;;;;;38.53;21.37;;;6.20;99.90;;;;;;4163491;28;20087;-64
2023/02/25 07:26:43;;;;;;;41.17;20.03;;;6.30;99.90;;;;;;4162723;28;20034;-63
2023/02/25 07:28:47;;;;;;;44.00;21.03;;;6.30;99.90;;;;;;4150725;28;20490;-68
2023/02/25 07:30:48;;;;;;;35.13;19.30;;;6.40;99.90;;;;;;4144758;28;20041;-62
2023/02/25 07:32:49;;;;;;;43.70;22.20;;;6.40;99.90;;;;;;4150831;28;20118;-63
2023/02/25 07:34:50;;;;;;;49.43;24.73;;;6.40;99.90;;;;;;4148318;28;20034;-63
2023/02/25 07:36:51;;;;;;;56.30;26.40;;;6.40;99.90;;;;;;4146675;28;20559;-66
2023/02/25 07:38:53;;;;;;;50.07;26.57;;;6.40;99.90;;;;;;4147006;28;20021;-63
2023/02/25 07:40:54;;;;;;;59.33;28.60;;;6.40;99.90;;;;;;4144320;28;20112;-63
2023/02/25 07:42:55;;;;;;;52.30;28.30;;;6.40;99.90;;;;;;4147639;28;20038;-65
2023/02/25 07:44:56;;;;;;;55.00;27.83;;;6.40;99.90;;;;;;4145442;28;20046;-63
2023/02/25 07:46:57;;;;;;;50.80;27.43;;;6.40;99.90;;;;;;4146586;28;20034;-66
2023/02/25 07:48:59;;;;;;;49.90;30.80;;;6.50;99.90;;;;;;4145173;28;20556;-61
2023/02/25 07:51:05;;;;;;;44.90;24.37;;;6.50;99.90;;;;;;4146781;28;20037;-59
2023/02/25 07:53:06;;;;;;;62.30;25.40;;;6.60;99.90;;;;;;4144338;28;20104;-62
2023/02/25 07:55:07;;;;;;;43.57;24.47;;;6.60;99.90;;;;;;4146627;28;20038;-62
2023/02/25 07:57:09;;;;;;;41.23;23.53;;;6.70;99.90;;;;;;4145719;28;20367;-62
2023/02/25 07:59:10;;;;;;;35.43;18.70;;;6.90;99.90;;;;;;4147474;28;20089;-61
2023/02/25 08:01:23;;;;;;;39.67;19.87;;;6.90;99.90;;;;;;4145874;28;20471;-61
2023/02/25 08:03:24;;;;;;;42.87;20.40;;;7.10;99.90;;;;;;4146287;28;20038;-65
2023/02/25 08:05:25;;;;;;;41.17;23.13;;;7.20;99.90;;;;;;4145946;28;20069;-62
2023/02/25 08:07:28;;;;;;;46.47;20.83;;;7.30;99.90;;;;;;4146223;28;20572;-61
2023/02/25 08:09:29;;;;;;;55.77;21.83;;;7.30;99.90;;;;;;4146344;28;20171;-65
2023/02/25 08:11:31;;;;;;;44.23;22.00;;;7.30;99.90;;;;;;4146405;28;20056;-70
2023/02/25 08:13:32;;;;;;;32.17;17.83;;;7.40;99.90;;;;;;4145618;28;20490;-65
2023/02/25 08:15:33;;;;;;;45.40;24.10;;;7.50;99.90;;;;;;4145480;28;20033;-61
2023/02/25 08:17:36;;;;;;;60.23;27.10;;;7.60;99.90;;;;;;4145104;28;20138;-65
2023/02/25 08:19:37;;;;;;;28.23;14.87;;;7.70;99.90;;;;;;4145012;28;20042;-65
2023/02/25 08:21:39;;;;;;;31.40;17.20;;;7.70;99.90;;;;;;4146429;28;20087;-69
2023/02/25 08:23:40;;;;;;;31.03;17.70;;;7.80;99.90;;;;;;4145234;28;20042;-62
2023/02/25 08:25:41;;;;;;;25.87;15.53;;;7.90;99.90;;;;;;4146267;28;20050;-63
2023/02/25 08:27:43;;;;;;;20.07;11.00;;;7.90;99.90;;;;;;4145130;28;20041;-62
2023/02/25 08:29:44;;;;;;;28.10;14.83;;;8.10;99.90;;;;;;4146294;28;20083;-65
2023/02/25 08:31:45;;;;;;;30.57;16.10;;;8.30;99.90;;;;;;4145914;28;20018;-63
2023/02/25 08:33:49;;;;;;;31.83;15.33;;;8.40;99.90;;;;;;4145654;28;20068;-64
2023/02/25 08:35:51;;;;;;;39.03;16.03;;;8.60;99.90;;;;;;4145514;28;20471;-64
2023/02/25 08:37:52;;;;;;;49.73;23.63;;;8.70;99.90;;;;;;4145995;28;20053;-65
2023/02/25 08:39:55;;;;;;;40.83;22.43;;;8.80;99.90;;;;;;4146596;28;20026;-62
2023/02/25 08:41:56;;;;;;;43.87;22.13;;;8.80;99.90;;;;;;4145423;28;20080;-63
2023/02/25 08:43:59;;;;;;;32.60;17.57;;;8.90;99.90;;;;;;4159633;28;20049;-63
2023/02/25 08:46:01;;;;;;;27.57;14.90;;;9.00;99.90;;;;;;4161170;28;20099;-64
2023/02/25 08:48:02;;;;;;;24.33;14.37;;;9.00;99.90;;;;;;4161164;28;20042;-62
2023/02/25 08:50:04;;;;;;;25.33;13.07;;;9.20;99.90;;;;;;4161224;28;20088;-62
2023/02/25 08:52:08;;;;;;;29.13;14.50;;;9.30;99.90;;;;;;4161983;28;20038;-63
2023/02/25 08:54:13;;;;;;;32.37;15.37;;;9.50;99.90;;;;;;4160708;28;20111;-64
2023/02/25 08:56:15;;;;;;;23.10;14.63;;;9.70;99.90;;;;;;4160867;28;20080;-63
2023/02/25 08:58:16;;;;;;;24.40;12.30;;;10.00;99.90;;;;;;4152942;28;20053;-64
2023/02/25 09:00:18;;;;;;;21.77;11.17;;;10.40;99.90;;;;;;4145959;28;20068;-65
2023/02/25 09:02:20;;;;;;;21.37;11.87;;;10.90;99.90;;;;;;4144610;28;20046;-64
2023/02/25 09:04:23;;;;;;;23.00;11.73;;;11.40;99.90;;;;;;4146384;28;20487;-65
2023/02/25 09:06:28;;;;;;;20.57;11.83;;;11.90;99.90;;;;;;4145087;28;20057;-74
2023/02/25 09:08:30;;;;;;;20.13;9.60;;;12.10;99.90;;;;;;4145188;28;20042;-63
2023/02/25 09:10:33;;;;;;;16.80;9.93;;;12.10;99.90;;;;;;4144551;28;20538;-69
2023/02/25 09:12:35;;;;;;;24.73;13.00;;;12.10;99.90;;;;;;4145317;28;20029;-63
2023/02/25 09:14:37;;;;;;;19.23;10.37;;;12.20;99.90;;;;;;4144904;28;20092;-65
2023/02/25 09:16:38;;;;;;;10.70;7.60;;;12.30;99.90;;;;;;4144842;28;20581;-67
2023/02/25 09:18:39;;;;;;;18.20;9.37;;;12.40;99.90;;;;;;4145008;28;20056;-63
2023/02/25 09:20:40;;;;;;;22.67;9.67;;;12.50;99.90;;;;;;4144427;28;20406;-69
2023/02/25 09:22:41;;;;;;;11.67;5.50;;;12.40;99.90;;;;;;4145335;28;20022;-64
2023/02/25 09:24:42;;;;;;;10.67;4.50;;;12.20;99.90;;;;;;4145071;28;20465;-63
2023/02/25 09:26:44;;;;;;;16.13;6.07;;;12.40;99.90;;;;;;4145256;28;20038;-65
2023/02/25 09:28:46;;;;;;;20.60;11.47;;;12.70;99.90;;;;;;4144296;28;20441;-66
2023/02/25 09:30:47;;;;;;;29.50;19.03;;;12.80;99.90;;;;;;4147340;28;20025;-64
2023/02/25 09:32:48;;;;;;;41.60;22.77;;;13.10;99.90;;;;;;4160267;28;20460;-66
2023/02/25 09:34:49;;;;;;;30.07;13.53;;;13.30;99.90;;;;;;4160280;28;20040;-63
2023/02/25 09:36:50;;;;;;;25.17;10.27;;;13.50;99.90;;;;;;4160638;28;20432;-63
2023/02/25 09:38:52;;;;;;;12.80;6.03;;;13.50;99.90;;;;;;4160398;28;20037;-71
2023/02/25 09:40:53;;;;;;;11.10;5.20;;;13.30;99.90;;;;;;4160169;28;20022;-62
2023/02/25 09:43:07;;;;;;;15.53;6.57;;;13.00;99.90;;;;;;4161077;28;20025;-66
2023/02/25 09:45:16;;;;;;;9.37;4.70;;;13.00;99.90;;;;;;4152945;28;20441;-64
2023/02/25 09:47:29;;;;;;;27.83;10.57;;;12.90;99.90;;;;;;4128464;28;20023;-66
2023/02/25 09:49:38;;;;;;;5.37;3.10;;;12.80;99.90;;;;;;4127457;28;20461;-63
2023/02/25 09:51:46;;;;;;;4.77;2.70;;;12.70;99.90;;;;;;4128660;28;20081;-63
2023/02/25 09:54:17;;;;;;;5.73;3.10;;;12.80;99.90;;;;;;4127722;28;20034;-63
2023/02/25 09:56:20;;;;;;;9.32;3.90;;;13.20;99.90;;;;;;4128460;28;20077;-63
2023/02/25 09:58:42;;;;;;;4.60;1.80;;;13.60;99.90;;;;;;4127514;28;20479;-63
2023/02/25 10:01:01;;;;;;;3.20;1.53;;;14.00;99.90;;;;;;4128743;28;20026;-64
2023/02/25 10:03:24;;;;;;;3.43;1.57;;;14.00;99.90;;;;;;4125914;28;20042;-66
2023/02/25 10:05:42;;;;;;;9.87;3.77;;;14.00;99.90;;;;;;4139114;28;21038;-63
2023/02/25 10:07:57;;;;;;;5.73;1.93;;;14.00;99.90;;;;;;4144009;28;20029;-65
2023/02/25 10:10:05;;;;;;;2.27;1.10;;;14.10;99.90;;;;;;4152373;28;20056;-63
2023/02/25 10:12:09;;;;;;;4.27;1.30;;;14.10;99.90;;;;;;4157144;28;20047;-63
2023/02/25 10:14:30;;;;;;;3.43;1.00;;;14.00;99.90;;;;;;4146502;28;20022;-63
2023/02/25 10:16:49;;;;;;;1.90;0.90;;;13.90;99.90;;;;;;4143767;28;20084;-62
2023/02/25 10:19:00;;;;;;;5.70;1.83;;;13.80;99.90;;;;;;4155956;28;20076;-62
2023/02/25 10:21:17;;;;;;;3.80;1.30;;;13.80;99.90;;;;;;4146853;28;20144;-68
2023/02/25 10:23:45;;;;;;;3.15;2.03;;;13.80;99.90;;;;;;4140347;28;20543;-64
2023/02/25 10:25:57;;;;;;;3.00;1.10;;;13.70;99.90;;;;;;4130983;28;20519;-63
2023/02/25 10:28:14;;;;;;;3.20;1.17;;;13.60;99.90;;;;;;4131136;28;20098;-65
2023/02/25 10:30:23;;;;;;;1.85;1.00;;;13.40;99.90;;;;;;4130163;28;20065;-64
2023/02/25 10:32:29;;;;;;;6.47;1.20;;;13.30;99.90;;;;;;4130909;28;20486;-63
2023/02/25 10:34:37;;;;;;;4.80;1.50;;;13.10;99.90;;;;;;4130180;28;20490;-62
2023/02/25 10:36:43;;;;;;;2.37;1.00;;;12.90;99.90;;;;;;4147885;28;20084;-64
2023/02/25 10:38:48;;;;;;;5.33;3.83;;;12.80;99.90;;;;;;4146940;28;20088;-63
2023/02/25 10:40:54;;;;;;;4.63;1.57;;;12.80;99.90;;;;;;4141013;28;20045;-63